Time;durP1;ratioP1;P1;durP2;ratioP2;P2;SDS_P1;SDS_P2;PMS_P1;PMS_P2;Temp;Humidity;BMP_temperature;BMP_pressure;BME280_temperature;BME280_humidity;BME280_pressure;Samples;Min_cycle;Max_cycle;Signal;HPM_P1;HPM_P2
2021/08/02 00:05:35;;;;;;;0.95;0.15;;;13.50;99.90;;;;;;20688199;28;20034;-83
2021/08/02 00:15:36;;;;;;;1.35;0.50;;;13.50;99.90;;;;;;20618850;28;20057;-83
2021/08/02 00:25:38;;;;;;;1.17;0.30;;;13.50;99.90;;;;;;20617698;28;20114;-84
2021/08/02 00:35:49;;;;;;;6.05;0.70;;;13.50;99.90;;;;;;20587113;28;20091;-84
2021/08/02 00:45:51;;;;;;;4.63;0.55;;;13.60;99.90;;;;;;20608898;28;20039;-84
2021/08/02 00:56:02;;;;;;;2.13;0.50;;;13.70;99.90;;;;;;20586546;28;20042;-84
2021/08/02 01:06:04;;;;;;;3.53;1.25;;;13.80;99.90;;;;;;20614342;28;20138;-84
2021/08/02 01:16:09;;;;;;;2.80;0.57;;;13.80;99.90;;;;;;20568472;28;20051;-84
2021/08/02 01:26:31;;;;;;;1.23;0.60;;;13.80;99.90;;;;;;20580615;28;20034;-84
2021/08/02 01:36:35;;;;;;;3.45;0.70;;;13.80;99.90;;;;;;20643043;28;20116;-84
2021/08/02 01:46:47;;;;;;;1.48;0.30;;;13.90;99.90;;;;;;20586620;28;20102;-83
2021/08/02 01:57:00;;;;;;;0.73;0.30;;;13.90;99.90;;;;;;20573716;28;20057;-83
2021/08/02 02:07:03;;;;;;;1.30;0.40;;;13.80;99.90;;;;;;20617596;28;20038;-84
2021/08/02 02:17:07;;;;;;;2.15;0.55;;;13.80;99.90;;;;;;20588253;28;20046;-84
2021/08/02 02:27:10;;;;;;;7.30;0.63;;;13.80;99.90;;;;;;20552487;28;20042;-84
2021/08/02 02:37:12;;;;;;;1.60;0.43;;;13.80;99.90;;;;;;20549194;28;20054;-84
2021/08/02 02:47:13;;;;;;;7.20;0.50;;;13.80;99.90;;;;;;20571287;28;20046;-84
2021/08/02 02:57:15;;;;;;;3.60;0.57;;;13.70;99.90;;;;;;20595012;28;20053;-83
2021/08/02 03:07:17;;;;;;;2.40;0.60;;;13.60;99.90;;;;;;20548905;28;20034;-84
2021/08/02 03:17:18;;;;;;;2.00;0.22;;;13.50;99.90;;;;;;20521703;28;20317;-83
2021/08/02 03:27:23;;;;;;;5.90;1.10;;;13.30;99.90;;;;;;20520220;28;20050;-83
2021/08/02 03:37:25;;;;;;;1.00;0.30;;;13.10;99.90;;;;;;20562733;28;20046;-83
2021/08/02 03:47:27;;;;;;;1.67;0.50;;;13.00;99.90;;;;;;20518742;28;20061;-83
2021/08/02 03:57:31;;;;;;;1.40;0.60;;;12.90;99.90;;;;;;20506972;28;20531;-84
2021/08/02 04:07:34;;;;;;;1.30;0.52;;;12.80;99.90;;;;;;20538312;28;20051;-82
2021/08/02 04:17:36;;;;;;;2.20;1.05;;;12.70;99.90;;;;;;20539217;28;20047;-83
2021/08/02 04:27:37;;;;;;;1.67;0.70;;;12.70;99.90;;;;;;20533809;28;20049;-83
2021/08/02 04:37:38;;;;;;;1.15;0.50;;;12.70;99.90;;;;;;20592577;28;20202;-83
2021/08/02 04:47:40;;;;;;;2.08;0.50;;;12.60;99.90;;;;;;20555144;28;20130;-83
2021/08/02 04:57:41;;;;;;;1.70;0.47;;;12.70;99.90;;;;;;20544606;28;20046;-83
2021/08/02 05:07:42;;;;;;;2.05;0.50;;;12.90;99.90;;;;;;20555745;28;20147;-84
2021/08/02 05:17:43;;;;;;;0.65;0.20;;;13.20;99.90;;;;;;20596958;28;20043;-84
2021/08/02 05:27:52;;;;;;;2.58;0.50;;;13.40;99.90;;;;;;20513760;28;20101;-84
2021/08/02 05:37:54;;;;;;;1.10;0.30;;;14.10;99.90;;;;;;20530648;28;20042;-83
2021/08/02 05:47:55;;;;;;;1.55;0.45;;;14.40;99.90;;;;;;20568440;28;20030;-84
2021/08/02 05:57:57;;;;;;;1.02;0.30;;;14.70;99.90;;;;;;20575989;28;20096;-84
2021/08/02 06:07:58;;;;;;;4.18;1.20;;;15.20;99.90;;;;;;20577809;28;20037;-84
2021/08/02 06:17:59;;;;;;;2.05;0.43;;;15.30;99.90;;;;;;20575925;28;20049;-83
2021/08/02 06:28:00;;;;;;;1.40;0.50;;;15.40;99.90;;;;;;20516592;28;20066;-85
2021/08/02 06:38:01;;;;;;;0.90;0.38;;;15.60;99.90;;;;;;20512918;28;20046;-85
2021/08/02 06:48:03;;;;;;;2.38;0.38;;;15.60;99.90;;;;;;20571340;28;20058;-85
2021/08/02 06:58:04;;;;;;;0.63;0.20;;;15.70;99.90;;;;;;20594951;28;20134;-86
2021/08/02 07:08:05;;;;;;;1.13;0.40;;;16.10;99.90;;;;;;20648672;28;20073;-86
2021/08/02 07:18:08;;;;;;;0.60;0.20;;;16.20;99.90;;;;;;20651898;28;20060;-84
2021/08/02 07:28:09;;;;;;;0.57;0.20;;;16.20;99.90;;;;;;20669033;28;20109;-84
2021/08/02 07:38:11;;;;;;;0.75;0.20;;;16.70;99.90;;;;;;20619675;28;20046;-84
2021/08/02 07:48:13;;;;;;;1.80;0.60;;;16.80;99.90;;;;;;20598383;28;20048;-85
2021/08/02 07:58:15;;;;;;;1.48;0.30;;;16.50;99.90;;;;;;20545046;28;20077;-84
2021/08/02 08:08:16;;;;;;;1.63;0.95;;;16.40;99.90;;;;;;20611304;28;20073;-85
2021/08/02 08:18:17;;;;;;;1.42;0.47;;;16.40;99.90;;;;;;20599102;28;20038;-86
2021/08/02 08:28:18;;;;;;;0.45;0.20;;;16.20;99.90;;;;;;20601194;28;20049;-85
2021/08/02 08:38:19;;;;;;;0.70;0.32;;;16.00;99.90;;;;;;20542550;28;20042;-86
2021/08/02 08:48:21;;;;;;;4.93;1.73;;;16.10;99.90;;;;;;20593285;28;20464;-84
2021/08/02 08:58:22;;;;;;;1.02;0.40;;;16.60;99.90;;;;;;20578552;28;20054;-88
2021/08/02 09:08:23;;;;;;;2.88;0.25;;;17.10;99.90;;;;;;20571254;28;20099;-88
2021/08/02 09:18:25;;;;;;;2.17;1.27;;;17.80;99.90;;;;;;20544980;28;20410;-87
2021/08/02 09:28:27;;;;;;;1.35;0.40;;;17.90;99.90;;;;;;20573449;28;20061;-88
2021/08/02 09:38:28;;;;;;;1.02;0.20;;;18.00;99.90;;;;;;20581830;28;20485;-86
2021/08/02 09:48:40;;;;;;;3.72;0.57;;;18.20;99.90;;;;;;20557580;28;20454;-86
2021/08/02 09:58:43;;;;;;;1.42;0.40;;;18.30;99.90;;;;;;20595070;28;20069;-86
2021/08/02 10:08:44;;;;;;;1.15;0.32;;;17.90;99.90;;;;;;20559936;28;20576;-84
2021/08/02 10:18:50;;;;;;;0.63;0.35;;;17.80;99.90;;;;;;20572446;28;20489;-81
2021/08/02 10:28:59;;;;;;;0.60;0.30;;;17.90;99.90;;;;;;20616839;28;20104;-84
2021/08/02 10:39:00;;;;;;;1.50;0.30;;;18.40;99.90;;;;;;20650416;28;20506;-82
2021/08/02 10:49:10;;;;;;;0.60;0.20;;;18.90;99.90;;;;;;20647730;28;20048;-82
2021/08/02 10:59:11;;;;;;;1.13;0.52;;;19.20;99.90;;;;;;20618364;28;20407;-85
2021/08/02 11:09:13;;;;;;;3.95;1.52;;;19.30;99.90;;;;;;20627689;28;20509;-82
2021/08/02 11:19:16;;;;;;;1.58;0.40;;;19.20;99.90;;;;;;20659207;28;20049;-83
2021/08/02 11:29:25;;;;;;;0.60;0.15;;;19.90;99.90;;;;;;20595242;28;20510;-82
2021/08/02 11:39:27;;;;;;;0.70;0.30;;;20.00;99.90;;;;;;20610982;28;20557;-83
2021/08/02 11:49:31;;;;;;;1.33;0.20;;;19.80;99.90;;;;;;20583783;28;20506;-83
2021/08/02 11:59:33;;;;;;;2.95;0.50;;;19.90;99.90;;;;;;20592746;28;20806;-83
2021/08/02 12:09:37;;;;;;;0.80;0.20;;;19.90;99.90;;;;;;20545009;28;20046;-82
2021/08/02 12:19:47;;;;;;;0.57;0.20;;;19.90;99.90;;;;;;20611391;28;20509;-83
2021/08/02 12:30:03;;;;;;;0.82;0.30;;;20.10;99.90;;;;;;20633683;28;20054;-83
2021/08/02 12:40:08;;;;;;;11.20;0.40;;;20.20;99.90;;;;;;20602748;28;20077;-85
2021/08/02 12:50:11;;;;;;;0.32;0.15;;;20.00;99.90;;;;;;20603301;28;20160;-83
2021/08/02 13:00:14;;;;;;;0.30;0.20;;;19.70;99.90;;;;;;20597575;28;20046;-84
2021/08/02 13:10:15;;;;;;;1.83;0.70;;;19.70;99.90;;;;;;20640532;28;20042;-83
2021/08/02 13:20:17;;;;;;;1.45;0.50;;;19.90;99.90;;;;;;20616661;28;20080;-84
2021/08/02 13:30:18;;;;;;;0.20;0.10;;;20.50;99.90;;;;;;20585258;28;20035;-83
2021/08/02 13:40:19;;;;;;;0.45;0.30;;;20.80;99.90;;;;;;20572834;28;20058;-84
2021/08/02 13:50:20;;;;;;;0.52;0.30;;;20.80;99.90;;;;;;20600606;28;20062;-83
2021/08/02 14:00:21;;;;;;;0.30;0.10;;;20.80;99.90;;;;;;20543777;28;20046;-83
2021/08/02 14:10:23;;;;;;;0.52;0.08;;;20.60;99.90;;;;;;20596738;28;20038;-83
2021/08/02 14:20:24;;;;;;;0.77;0.13;;;20.80;99.90;;;;;;20574306;28;20051;-84
2021/08/02 14:30:25;;;;;;;1.20;0.30;;;20.70;99.90;;;;;;20571436;28;20039;-83
2021/08/02 14:40:27;;;;;;;0.65;0.17;;;20.80;99.90;;;;;;20616689;28;20042;-81
2021/08/02 14:50:28;;;;;;;0.65;0.20;;;20.80;99.90;;;;;;20585425;28;20040;-81
2021/08/02 15:00:30;;;;;;;1.15;0.20;;;21.20;99.90;;;;;;20566888;28;20039;-81
2021/08/02 15:10:32;;;;;;;0.63;0.20;;;21.10;99.90;;;;;;20581218;28;21034;-82
2021/08/02 15:20:34;;;;;;;2.17;0.22;;;20.90;99.90;;;;;;20594541;28;20038;-82
2021/08/02 15:30:37;;;;;;;1.73;0.30;;;20.80;99.90;;;;;;20551497;28;20046;-82
2021/08/02 15:40:44;;;;;;;1.30;0.10;;;20.50;99.90;;;;;;20557372;28;20052;-82
2021/08/02 15:50:45;;;;;;;0.55;0.10;;;20.60;99.90;;;;;;20588134;28;20039;-83
2021/08/02 16:00:58;;;;;;;0.63;0.20;;;20.50;99.90;;;;;;20570233;28;20057;-81
2021/08/02 16:11:02;;;;;;;0.73;0.30;;;20.40;99.90;;;;;;20557676;28;20053;-84
2021/08/02 16:21:03;;;;;;;0.40;0.20;;;20.30;99.90;;;;;;20547804;28;20047;-83
2021/08/02 16:31:04;;;;;;;0.50;0.20;;;20.20;99.90;;;;;;20553773;28;20045;-82
2021/08/02 16:41:05;;;;;;;0.40;0.15;;;19.80;99.90;;;;;;20565055;28;20822;-82
2021/08/02 16:51:08;;;;;;;1.17;0.25;;;19.90;99.90;;;;;;20535333;28;20061;-82
2021/08/02 17:01:09;;;;;;;3.50;0.57;;;19.90;99.90;;;;;;20535261;28;20054;-83
2021/08/02 17:11:10;;;;;;;0.95;0.30;;;19.80;99.90;;;;;;20588027;28;20042;-83
2021/08/02 17:21:11;;;;;;;0.50;0.20;;;19.50;99.90;;;;;;20569235;28;20069;-86
2021/08/02 17:31:13;;;;;;;1.00;0.10;;;19.10;99.90;;;;;;20573353;28;20046;-84
2021/08/02 17:41:15;;;;;;;1.02;0.20;;;18.80;99.90;;;;;;20578818;28;20065;-84
2021/08/02 17:51:17;;;;;;;0.55;0.20;;;18.70;99.90;;;;;;20562830;28;20022;-84
2021/08/02 18:01:19;;;;;;;0.35;0.10;;;18.50;99.90;;;;;;20573226;28;20093;-84
2021/08/02 18:11:22;;;;;;;1.40;0.38;;;18.40;99.90;;;;;;20593570;28;20051;-84
2021/08/02 18:21:24;;;;;;;0.70;0.17;;;18.50;99.90;;;;;;20573080;28;20046;-84
2021/08/02 18:31:25;;;;;;;0.52;0.15;;;18.30;99.90;;;;;;20586302;28;20075;-84
2021/08/02 18:41:26;;;;;;;0.50;0.20;;;17.90;99.90;;;;;;20555287;28;20038;-84
2021/08/02 18:51:27;;;;;;;0.43;0.20;;;17.60;99.90;;;;;;20587633;28;20093;-83
2021/08/02 19:01:29;;;;;;;2.50;0.57;;;17.40;99.90;;;;;;20570333;28;20054;-84
2021/08/02 19:11:37;;;;;;;7.20;0.57;;;17.20;99.90;;;;;;20587451;28;20054;-85
2021/08/02 19:21:41;;;;;;;1.42;0.52;;;17.00;99.90;;;;;;20602383;28;20054;-84
2021/08/02 19:31:43;;;;;;;3.75;0.35;;;16.70;99.90;;;;;;20568659;28;20038;-85
2021/08/02 19:41:52;;;;;;;0.88;0.30;;;16.40;99.90;;;;;;20571378;28;20043;-86
2021/08/02 19:52:00;;;;;;;1.13;0.38;;;16.00;99.90;;;;;;20592579;28;20057;-86
2021/08/02 20:02:01;;;;;;;;;;;15.90;99.90;;;;;;20581044;28;20142;-87
2021/08/02 20:12:04;;;;;;;1.23;0.57;;;15.80;99.90;;;;;;20600874;28;21030;-86
2021/08/02 20:22:10;;;;;;;2.25;0.60;;;15.60;99.90;;;;;;20567181;28;20110;-86
2021/08/02 20:32:12;;;;;;;1.60;0.70;;;15.40;99.90;;;;;;20573590;28;20056;-86
2021/08/02 20:42:14;;;;;;;2.05;0.77;;;15.20;99.90;;;;;;20562934;28;20053;-86
2021/08/02 20:52:19;;;;;;;2.40;0.75;;;15.00;99.90;;;;;;20557958;28;20079;-86
2021/08/02 21:02:23;;;;;;;1.50;0.98;;;14.90;99.90;;;;;;20566949;28;20098;-85
2021/08/02 21:12:30;;;;;;;2.67;0.70;;;14.80;99.90;;;;;;20581816;28;20133;-86
2021/08/02 21:22:43;;;;;;;3.47;1.88;;;14.60;99.90;;;;;;20577865;28;20050;-86
2021/08/02 21:32:44;;;;;;;5.28;1.70;;;14.60;99.90;;;;;;20615544;28;20068;-86
2021/08/02 21:42:45;;;;;;;3.67;0.50;;;14.50;99.90;;;;;;20531267;28;20121;-86
2021/08/02 21:52:46;;;;;;;6.47;0.85;;;14.40;99.90;;;;;;20545876;28;20034;-86
2021/08/02 22:02:48;;;;;;;1.98;0.80;;;14.20;99.90;;;;;;20572668;28;20047;-86
2021/08/02 22:12:49;;;;;;;1.33;0.47;;;14.20;99.90;;;;;;20560485;28;20100;-85
2021/08/02 22:22:51;;;;;;;2.83;0.60;;;14.10;99.90;;;;;;20590443;28;20069;-84
2021/08/02 22:32:53;;;;;;;1.85;0.50;;;14.10;99.90;;;;;;20579823;28;20038;-85
2021/08/02 22:42:59;;;;;;;1.88;0.90;;;14.10;99.90;;;;;;20594910;28;20055;-85
2021/08/02 22:53:01;;;;;;;2.53;1.10;;;14.30;99.90;;;;;;20590137;28;20410;-86
2021/08/02 23:03:06;;;;;;;1.42;0.45;;;14.20;99.90;;;;;;20567195;28;20392;-86
2021/08/02 23:13:08;;;;;;;1.30;0.40;;;14.10;99.90;;;;;;20568405;28;20045;-85
2021/08/02 23:23:11;;;;;;;2.22;0.70;;;14.00;99.90;;;;;;20572048;28;20433;-86
2021/08/02 23:33:14;;;;;;;1.20;0.57;;;13.90;99.90;;;;;;20587611;28;20050;-85
2021/08/02 23:43:16;;;;;;;6.93;0.80;;;13.90;99.90;;;;;;20577072;28;20502;-85
2021/08/02 23:53:18;;;;;;;1.88;1.10;;;13.90;99.90;;;;;;20531519;28;20595;-86
